Terminal Aerodrome Forecast
Issued by NWS Cleveland, OH

Home | Current Version | Previous Version | Text Only | Print | Product List | Glossary Off
Versions: 1 2 3 4 5 6 7 8 9 10 11 12 13 14 15 16 17

000
FTUS41 KCLE 271100
TAFTOL
TAF
KTOL 271122Z 2712/2812 34010KT P6SM OVC045
     FM271300 31009KT P6SM -SN OVC025
     FM271500 34012KT P6SM SCT250
     FM271800 34010G20KT P6SM BKN045
     FM272300 36007KT P6SM BKN050=

USA.gov is the U.S. government's official web portal to all federal, state and local government web resources and services.